Wetterdaten: Februar 2008
Datum Temp Feuchte Luftdruck Regen Wind Richtung Sonnenschein UV Solar Windben
08.02.2008 7,0 C 56 % 1033,0 hPa 0,0 l/m 0,0 km/h N 0,00 h 0,0 UV-I 0 W/m 0,0 km/h
09.02.2008 4,3 C 61 % 1032,8 hPa 1,5 l/m 1,3 km/h N 0,00 h 0,0 UV-I 0 W/m 0,0 km/h
10.02.2008 3,8 C 70 % 1033,5 hPa 0,0 l/m 0,3 km/h N 0,00 h 0,0 UV-I 0 W/m 0,0 km/h
11.02.2008 3,4 C 72 % 1033,0 hPa 0,0 l/m 0,5 km/h N 0,00 h 0,0 UV-I 0 W/m 0,0 km/h
12.02.2008 2,2 C 77 % 1032,0 hPa 0,0 l/m 0,3 km/h N 0,00 h 0,0 UV-I 0 W/m 0,0 km/h
13.02.2008 -0,5 C 78 % 1032,5 hPa 0,0 l/m 0,9 km/h N 0,00 h 0,0 UV-I 0 W/m 0,0 km/h
14.02.2008 0,4 C 83 % 1032,8 hPa 0,0 l/m 0,2 km/h N 0,00 h 0,0 UV-I 0 W/m 0,0 km/h
15.02.2008 -1,6 C 61 % 1036,5 hPa 0,3 l/m 0,3 km/h N 0,00 h 0,0 UV-I 0 W/m 0,0 km/h
16.02.2008 -4,7 C 64 % 1040,8 hPa 0,0 l/m 0,6 km/h N 0,00 h 0,0 UV-I 0 W/m 0,0 km/h
17.02.2008 0,1 C 49 % 1034,5 hPa 0,0 l/m 0,5 km/h N 0,00 h 0,0 UV-I 0 W/m 0,0 km/h
18.02.2008 -1,3 C 81 % 1028,8 hPa 0,0 l/m 0,1 km/h N 0,00 h 0,0 UV-I 0 W/m 0,0 km/h
19.02.2008 0,2 C 81 % 1022,5 hPa 0,0 l/m 0,0 km/h N 0,00 h 0,0 UV-I 0 W/m 0,0 km/h
20.02.2008 2,2 C 80 % 1016,8 hPa 0,9 l/m 0,0 km/h N 0,00 h 0,0 UV-I 0 W/m 0,0 km/h
21.02.2008 5,9 C 77 % 1018,0 hPa 1,2 l/m 2,2 km/h N 0,00 h 0,0 UV-I 0 W/m 0,0 km/h
22.02.2008 7,6 C 80 % 1017,8 hPa 3,5 l/m 8,9 km/h N 0,00 h 0,0 UV-I 0 W/m 0,0 km/h
23.02.2008 6,0 C 73 % 1022,8 hPa 0,3 l/m 3,3 km/h N 0,00 h 0,0 UV-I 0 W/m 0,0 km/h
24.02.2008 6,2 C 79 % 1016,5 hPa 0,0 l/m 0,6 km/h N 0,00 h 0,0 UV-I 0 W/m 0,0 km/h
25.02.2008 4,5 C 75 % 1017,0 hPa 6,2 l/m 3,1 km/h N 0,00 h 0,0 UV-I 0 W/m 0,0 km/h
26.02.2008 8,5 C 76 % 1005,3 hPa 10,0 l/m 4,4 km/h N 0,00 h 0,0 UV-I 0 W/m 0,0 km/h
27.02.2008 4,7 C 71 % 1013,3 hPa 0,0 l/m 4,8 km/h N 0,00 h 0,0 UV-I 0 W/m 0,0 km/h
28.02.2008 3,8 C 72 % 1017,5 hPa 0,0 l/m 0,6 km/h N 0,00 h 0,0 UV-I 0 W/m 0,0 km/h
29.02.2008 5,2 C 79 % 1005,8 hPa 7,4 l/m 1,8 km/h N 0,00 h 0,0 UV-I 0 W/m 0,0 km/h
Min-Datum 16.02.08 17.02.08 29.02.08 9 Tage 08.02.08 - - - - 08.02.08
Min-Zeit 07:25 14:30 23:15 - 14:25 - - - - 14:25
Minimum -9,0 C 30 % 996,0 hPa - 0,0 km/h - - - - 0,0 km/h
Max-Datum 10.02.08 14.02.08 16.02.08 26.02.08 26.02.08 - 08.02.08 08.02.08 08.02.08 08.02.08
Max-Zeit 12:50 09:35 10:10 15:50 18:55 - 14:25 14:25 14:25 14:25
Maximum 15,0 C 86 % 1042,0 hPa 10,0 l/m 41,1 km/h
N
- 0,00 h 0,0 UV-I 0 W/m 0,0 km/h
N
Durchschnitt 3,1 C 72 % 1024,7 hPa #31,3 l/m 1,6 km/h N #0 min. 0,0 UV-I 0 W/m 0,0 km/h

Durchschnitt Minimum Temp.-1,0 C
Durchschnitt Maximum Temp.8,1 C